Chief — WBY3781 — position and weather

sailwx.info

Track history (hours):
 
Tides and Currents Weather Stations Pressure Air Temp Water Temp Dewpoint Dewpoint Depression Visibility Wind Speed Wind Dir Waves Ship Positions

Chief

Owner: T & C TOWING INC, ELIZABETH CITY, NC. More information available from US FCC via Universal Licensing System and Coast Guard Vessel Documentation Center.

Last reported at 2017-Oct-17 15:25 UTC. Time now 2017-Oct-18 15:15 UTC.
Position N 38°49' W 076°27'.

Length 30 m; draft 0.3 m.

Type: Tug. MMSI: 280001.

Date/timePositionNaut miles runAvg speedWind from/ knotsBaromVisibWave heightAir tempDewpointWater temp
2017-Oct-17 15:25N 38°49' W 076°27'3 7.5
2017-Oct-17 14:59N 38°52' W 076°26'4 7.8
2017-Oct-17 14:30N 38°55' W 076°25'4 7.4
2017-Oct-17 14:00N 38°59' W 076°23'10 6.5
2017-Oct-17 12:26N 39°09' W 076°25'3 6.1
2017-Oct-17 12:00N 39°11' W 076°27'4 6.5
2017-Oct-17 11:27N 39°12' W 076°31'2 3.8
2017-Oct-17 11:00N 39°14' W 076°33'1 2.4
2017-Oct-17 10:30N 39°13' W 076°34'1 1.2
2017-Oct-17 10:00N 39°13' W 076°35'0 0.0
2017-Oct-17 07:21N 39°13' W 076°35'0 0.0
2017-Oct-17 06:56N 39°13' W 076°35'0 0.0
2017-Oct-17 05:27N 39°13' W 076°35'0 0.0
2017-Oct-17 04:51N 39°13' W 076°35'0 0.0
2017-Oct-17 04:28N 39°13' W 076°35'0 0.0
2017-Oct-17 04:00N 39°13' W 076°35'0 0.0
2017-Oct-17 03:30N 39°13' W 076°35'0 0.0
2017-Oct-17 03:00N 39°13' W 076°35'0 0.0
2017-Oct-17 02:30N 39°13' W 076°35'0 0.0
2017-Oct-17 02:00N 39°13' W 076°35'0 0.0
2017-Oct-17 01:30N 39°13' W 076°35'0 0.0
2017-Oct-17 01:00N 39°13' W 076°35'0 0.0
2017-Oct-17 00:30N 39°13' W 076°35'0 0.0
2017-Oct-16 23:37N 39°13' W 076°35'0 0.0
2017-Oct-16 22:03N 39°13' W 076°35'0 0.1
2017-Oct-16 21:53N 39°13' W 076°35'0 0.1
2017-Oct-16 21:29N 39°13' W 076°35'0 0.0
2017-Oct-16 20:56N 39°13' W 076°35'0 0.0
2017-Oct-16 20:16N 39°13' W 076°35'0 0.0
2017-Oct-16 19:51N 39°13' W 076°35'0 0.0
2017-Oct-16 19:24N 39°13' W 076°35'0 0.0
2017-Oct-16 19:00N 39°13' W 076°35'0 0.0
2017-Oct-16 18:29N 39°13' W 076°35'0 0.0
2017-Oct-16 17:51N 39°13' W 076°35'0 0.0
2017-Oct-16 16:51N 39°13' W 076°35'0 0.0
2017-Oct-16 16:16N 39°13' W 076°35'0 0.0
2017-Oct-16 15:48N 39°13' W 076°35'0 0.0
2017-Oct-16 15:29N 39°13' W 076°35'0 0.0
2017-Oct-16 14:26N 39°13' W 076°35'0 0.0
2017-Oct-16 13:03N 39°13' W 076°35'0 0.0
2017-Oct-16 13:00N 39°13' W 076°35'0 0.0
2017-Oct-16 12:30N 39°13' W 076°35'0 0.0
2017-Oct-16 11:55N 39°13' W 076°35'0 0.0
2017-Oct-16 11:28N 39°13' W 076°35'0 0.0
2017-Oct-16 10:58N 39°13' W 076°35'0 0.0
2017-Oct-16 06:55N 39°13' W 076°35'0 0.0
2017-Oct-16 05:40N 39°13' W 076°35'0 0.0
2017-Oct-16 05:26N 39°13' W 076°35'0 0.0
2017-Oct-16 04:41N 39°13' W 076°35'1 4.1
2017-Oct-16 04:23N 39°13' W 076°33'5 2.4
2017-Oct-16 02:25N 39°12' W 076°28'1 3.2
2017-Oct-16 01:59N 39°11' W 076°27'1 0.3
2017-Oct-15 23:32N 39°11' W 076°27'0 6.0
2017-Oct-15 23:28N 39°11' W 076°28'4 7.6
2017-Oct-15 22:57N 39°13' W 076°32'2 2.7
2017-Oct-15 22:14N 39°13' W 076°35'1 2.9
2017-Oct-15 21:56N 39°13' W 076°34'1 1.0
2017-Oct-15 20:53N 39°13' W 076°35'2 5.2
2017-Oct-15 20:31N 39°14' W 076°33'1 2.4
2017-Oct-15 20:00N 39°15' W 076°34'0 0.0
2017-Oct-15 19:30N 39°15' W 076°34'0 0.0
2017-Oct-15 19:00N 39°15' W 076°34'0 0.1
2017-Oct-15 18:30N 39°15' W 076°34'0 0.0
2017-Oct-15 17:59N 39°15' W 076°34'0 0.0
2017-Oct-15 17:30N 39°15' W 076°34'0 0.0
2017-Oct-15 16:57N 39°15' W 076°34'0 0.0
2017-Oct-15 16:30N 39°15' W 076°34'0 0.0
2017-Oct-15 16:00N 39°15' W 076°34'0 0.0
2017-Oct-15 15:30N 39°15' W 076°34'2 3.1
2017-Oct-15 14:59N 39°14' W 076°32'9 8.8
2017-Oct-15 14:00N 39°08' W 076°24'4 9.1
2017-Oct-15 13:30N 39°04' W 076°23'4 8.6
2017-Oct-15 13:01N 38°59' W 076°23'5 9.1
2017-Oct-15 12:30N 38°55' W 076°25'4 8.9
2017-Oct-15 12:00N 38°51' W 076°26'77 8.1
2017-Oct-15 02:31N 37°35' W 076°11'010.4
2017-Oct-15 02:30N 37°35' W 076°11'13 3.0
2017-Oct-14 22:01N 37°48' W 076°12'1 7.0
2017-Oct-14 21:52N 37°49' W 076°11'7 6.6
2017-Oct-14 20:51N 37°56' W 076°12'3 7.0
2017-Oct-14 20:22N 37°59' W 076°13'3 7.0
2017-Oct-14 19:58N 38°02' W 076°14'4 7.1
2017-Oct-14 19:27N 38°05' W 076°15'4 7.0
2017-Oct-14 18:56N 38°09' W 076°17'3 7.0
2017-Oct-14 18:27N 38°12' W 076°17'6 6.9
2017-Oct-14 17:33N 38°18' W 076°20'5 6.9
2017-Oct-14 16:45N 38°23' W 076°21'2 6.7
2017-Oct-14 16:28N 38°25' W 076°23'3 6.5
2017-Oct-14 16:01N 38°27' W 076°25'3 6.4
2017-Oct-14 15:30N 38°30' W 076°27'3 6.3
2017-Oct-14 15:00N 38°33' W 076°28'4 6.4
2017-Oct-14 14:22N 38°37' W 076°29'8 6.6
2017-Oct-14 13:08N 38°45' W 076°29'3 6.8
2017-Oct-14 12:42N 38°48' W 076°28'1 7.0
2017-Oct-14 12:30N 38°49' W 076°27'8 7.2
2017-Oct-14 11:27N 38°57' W 076°24'3 6.4
2017-Oct-14 11:00N 38°59' W 076°23'3 6.4
2017-Oct-14 10:30N 39°03' W 076°23'4 6.1
2017-Oct-14 09:55N 39°06' W 076°24'3 5.7
2017-Oct-14 09:27N 39°09' W 076°25'3 5.6
2017-Oct-14 08:58N 39°11' W 076°27'3 5.8
2017-Oct-14 08:26N 39°12' W 076°30'3 4.7
2017-Oct-14 07:54N 39°14' W 076°33'0 0.5
2017-Oct-14 07:29N 39°14' W 076°33'1 2.7
2017-Oct-14 07:00N 39°13' W 076°35'0 0.4
2017-Oct-14 06:23N 39°13' W 076°35'0 0.1
2017-Oct-14 05:54N 39°13' W 076°35'1 2.7
2017-Oct-14 05:30N 39°13' W 076°34'1 1.9
2017-Oct-14 05:00N 39°13' W 076°35'0 0.3
2017-Oct-14 04:31N 39°13' W 076°35'0 0.0
2017-Oct-14 04:00N 39°13' W 076°35'0 0.0
2017-Oct-14 03:31N 39°13' W 076°35'0 0.1
2017-Oct-14 03:00N 39°13' W 076°35'0 0.0
2017-Oct-14 02:30N 39°13' W 076°35'2 3.5
2017-Oct-14 01:53N 39°13' W 076°32'13 8.4
2017-Oct-14 00:17N 39°13' W 076°15'311.2
2017-Oct-14 00:00N 39°16' W 076°14'711.1
2017-Oct-13 23:23N 39°22' W 076°09'411.2
2017-Oct-13 23:00N 39°24' W 076°04'510.7
2017-Oct-13 22:30N 39°28' W 075°59'5 9.8
2017-Oct-13 22:00N 39°31' W 075°54'4 7.5
2017-Oct-13 21:30N 39°32' W 075°49'4 8.2
2017-Oct-13 21:00N 39°32' W 075°44'4 8.8
2017-Oct-13 20:31N 39°33' W 075°38'4 7.6
2017-Oct-13 20:00N 39°34' W 075°34'1 2.6
2017-Oct-13 19:30N 39°35' W 075°35'0 0.8
2017-Oct-13 19:00N 39°35' W 075°35'1 1.2
2017-Oct-13 18:30N 39°34' W 075°34'1 1.3
2017-Oct-13 18:00N 39°34' W 075°34'2 4.2
2017-Oct-13 17:30N 39°33' W 075°37'2 4.1
2017-Oct-13 17:00N 39°33' W 075°39'2 4.2
2017-Oct-13 16:30N 39°33' W 075°42'2 3.8
2017-Oct-13 16:00N 39°32' W 075°44'2 3.3
2017-Oct-13 15:31N 39°32' W 075°46'1 2.7
2017-Oct-13 15:00N 39°32' W 075°48'1 2.4
2017-Oct-13 14:30N 39°32' W 075°50'1 2.6
2017-Oct-13 14:00N 39°32' W 075°51'1 2.4
2017-Oct-13 13:30N 39°31' W 075°53'1 2.1
2017-Oct-13 13:00N 39°31' W 075°54'1 2.0
2017-Oct-13 12:31N 39°30' W 075°55'1 2.2
2017-Oct-13 12:00N 39°30' W 075°56'1 1.8
2017-Oct-13 11:30N 39°29' W 075°57'1 1.8
2017-Oct-13 11:01N 39°28' W 075°58'1 1.9
2017-Oct-13 10:31N 39°28' W 075°59'1 2.1
2017-Oct-13 10:01N 39°27' W 075°60'1 2.3
2017-Oct-13 09:31N 39°26' W 076°01'1 2.3
2017-Oct-13 09:00N 39°25' W 076°02'3 5.7
2017-Oct-13 08:30N 39°27' W 075°59'4 7.0
2017-Oct-13 08:00N 39°30' W 075°56'3 6.5
2017-Oct-13 07:30N 39°32' W 075°52'2 4.3
2017-Oct-13 07:00N 39°32' W 075°50'2 4.4
2017-Oct-13 06:30N 39°32' W 075°47'3 6.3
2017-Oct-13 06:00N 39°33' W 075°43'3 6.5
2017-Oct-13 05:31N 39°33' W 075°39'3 6.4
2017-Oct-13 05:00N 39°34' W 075°34'3 5.1
2017-Oct-13 04:30N 39°36' W 075°34'3 6.9
2017-Oct-13 04:00N 39°39' W 075°33'4 7.8
2017-Oct-13 03:30N 39°43' W 075°31'4 7.9
2017-Oct-13 03:00N 39°46' W 075°28'4 7.9
2017-Oct-13 02:30N 39°49' W 075°24'4 7.3
2017-Oct-13 02:00N 39°51' W 075°20'4 7.5
2017-Oct-13 01:30N 39°51' W 075°15'4 7.2
2017-Oct-13 01:00N 39°53' W 075°11'2 4.5
2017-Oct-13 00:30N 39°54' W 075°09'0 0.1
2017-Oct-13 00:00N 39°54' W 075°09'0 0.0
2017-Oct-12 23:30N 39°54' W 075°09'0 0.0
2017-Oct-12 23:00N 39°54' W 075°09'0 0.0
2017-Oct-12 22:30N 39°54' W 075°09'0 0.0
2017-Oct-12 22:00N 39°54' W 075°09'0 0.0
2017-Oct-12 21:30N 39°54' W 075°09'2 3.9
2017-Oct-12 21:00N 39°56' W 075°08'3 6.5
2017-Oct-12 20:30N 39°58' W 075°06'1 2.5
2017-Oct-12 20:00N 39°59' W 075°04'0 0.0
2017-Oct-12 19:30N 39°59' W 075°04'2 4.9
2017-Oct-12 19:00N 39°58' W 075°07'4 7.1
2017-Oct-12 18:31N 39°54' W 075°08'1 1.7
2017-Oct-12 18:01N 39°54' W 075°09'0 0.0
2017-Oct-12 17:31N 39°54' W 075°09'0 0.0
2017-Oct-12 17:00N 39°54' W 075°09'0 0.0
2017-Oct-12 16:30N 39°54' W 075°09'0 0.0
2017-Oct-12 16:00N 39°54' W 075°09'0 0.0
2017-Oct-12 15:30N 39°54' W 075°09'0 0.0
2017-Oct-12 15:01N 39°54' W 075°09'0 0.0
2017-Oct-12 14:30N 39°54' W 075°09'0 0.0
2017-Oct-12 14:00N 39°54' W 075°09'0 0.0
2017-Oct-12 13:30N 39°54' W 075°09'0 0.0
2017-Oct-12 13:00N 39°54' W 075°09'0 0.0
2017-Oct-12 12:30N 39°54' W 075°09'0 0.0
2017-Oct-12 12:00N 39°54' W 075°09'0 0.0
2017-Oct-12 11:31N 39°54' W 075°09'0 0.0
2017-Oct-12 11:00N 39°54' W 075°09'0 0.0
2017-Oct-12 10:30N 39°54' W 075°09'0 0.0
2017-Oct-12 10:00N 39°54' W 075°09'0 0.0
2017-Oct-12 09:30N 39°54' W 075°09'0 0.0
2017-Oct-12 09:00N 39°54' W 075°09'0 0.0
2017-Oct-12 08:30N 39°54' W 075°09'0 0.0
2017-Oct-12 08:00N 39°54' W 075°09'0 0.0
2017-Oct-12 07:30N 39°54' W 075°09'0 0.0
2017-Oct-12 07:00N 39°54' W 075°09'0 0.0
2017-Oct-12 06:30N 39°54' W 075°09'0 0.0
2017-Oct-12 06:00N 39°54' W 075°09'0 0.0
2017-Oct-12 05:30N 39°54' W 075°09'0 0.0
2017-Oct-12 05:00N 39°54' W 075°09'0 0.0
2017-Oct-12 04:31N 39°54' W 075°09'0 0.0
2017-Oct-12 04:00N 39°54' W 075°09'0 0.0
2017-Oct-12 03:30N 39°54' W 075°09'0 0.0
2017-Oct-12 03:01N 39°54' W 075°09'0 0.0
2017-Oct-12 02:30N 39°54' W 075°09'0 0.0
2017-Oct-12 02:00N 39°54' W 075°09'0 0.0
2017-Oct-12 01:31N 39°54' W 075°09'0 0.0
2017-Oct-12 01:00N 39°54' W 075°09'0 0.0
2017-Oct-12 00:30N 39°54' W 075°09'0 0.0
2017-Oct-11 22:28N 39°54' W 075°09'0 0.2
2017-Oct-11 22:01N 39°54' W 075°08'1 1.3
2017-Oct-11 21:30N 39°54' W 075°08'3 6.3
2017-Oct-11 21:00N 39°57' W 075°08'3 5.1
2017-Oct-11 20:30N 39°59' W 075°05'0 0.1
2017-Oct-11 20:00N 39°59' W 075°05'4 7.4
2017-Oct-11 19:30N 39°56' W 075°08'2 4.4
2017-Oct-11 19:00N 39°54' W 075°09'0 0.0
2017-Oct-11 18:30N 39°54' W 075°09'0 0.0
2017-Oct-11 18:01N 39°54' W 075°09'0 0.0
2017-Oct-11 17:31N 39°54' W 075°09'0 0.0
2017-Oct-11 17:01N 39°54' W 075°09'6 0.3
2017-Oct-11 00:01N 39°59' W 075°04'3 5.0
2017-Oct-10 23:30N 39°58' W 075°08'3 5.5
2017-Oct-10 23:00N 39°55' W 075°08'1 2.8
2017-Oct-10 22:30N 39°54' W 075°08'0 0.4
2017-Oct-10 22:01N 39°54' W 075°09'0 0.0
2017-Oct-10 21:30N 39°54' W 075°09'0 0.0
2017-Oct-10 21:00N 39°54' W 075°09'0 0.0
2017-Oct-10 20:30N 39°54' W 075°09'0 0.0
2017-Oct-10 20:00N 39°54' W 075°09'0 0.0
2017-Oct-10 19:31N 39°54' W 075°09'0 0.9
2017-Oct-10 19:00N 39°54' W 075°08'0 0.1
2017-Oct-10 18:31N 39°54' W 075°08'2 4.4
2017-Oct-10 18:00N 39°56' W 075°08'3 5.8
2017-Oct-10 17:30N 39°58' W 075°06'1 2.9
2017-Oct-10 17:00N 39°59' W 075°04'0 0.2
2017-Oct-10 16:30N 39°59' W 075°04'1 2.6
2017-Oct-10 16:00N 39°58' W 075°06'3 5.7
2017-Oct-10 15:30N 39°56' W 075°08'3 5.2
2017-Oct-10 15:01N 39°54' W 075°08'0 0.1
2017-Oct-10 14:00N 39°54' W 075°09'0 0.0
2017-Oct-10 13:30N 39°54' W 075°09'0 0.0
2017-Oct-10 13:00N 39°54' W 075°09'0 0.1
2017-Oct-10 12:30N 39°54' W 075°09'0 0.1
2017-Oct-10 12:01N 39°54' W 075°09'3 6.3
2017-Oct-10 11:30N 39°57' W 075°08'4 7.3
2017-Oct-10 11:01N 39°59' W 075°04'1 1.9
2017-Oct-10 10:30N 39°59' W 075°05'4 7.4
2017-Oct-10 10:00N 39°56' W 075°08'2 3.6
2017-Oct-10 09:31N 39°54' W 075°09'0 0.0
2017-Oct-10 09:00N 39°54' W 075°09'0 0.0
2017-Oct-10 08:30N 39°54' W 075°09'0 0.0
2017-Oct-10 08:01N 39°54' W 075°09'0 0.0
2017-Oct-10 07:30N 39°54' W 075°09'0 0.0
2017-Oct-10 07:00N 39°54' W 075°09'0 0.0
2017-Oct-10 06:30N 39°54' W 075°09'0 0.0
2017-Oct-10 06:00N 39°54' W 075°09'0 0.0
2017-Oct-10 05:30N 39°54' W 075°09'0 0.0
2017-Oct-10 05:01N 39°54' W 075°09'0 0.0
2017-Oct-10 04:31N 39°54' W 075°09'0 0.0
2017-Oct-10 04:01N 39°54' W 075°09'0 0.4
2017-Oct-10 03:30N 39°54' W 075°08'0 0.3
2017-Oct-10 03:00N 39°54' W 075°08'2 3.0
2017-Oct-10 02:30N 39°55' W 075°08'4 8.2
2017-Oct-10 02:00N 39°59' W 075°05'1 1.0
2017-Oct-10 01:30N 39°59' W 075°04'0 0.1
2017-Oct-10 01:00N 39°59' W 075°04'2 3.6
2017-Oct-10 00:30N 39°58' W 075°06'1 2.9
2017-Oct-10 00:00N 39°57' W 075°08'3 6.5
2017-Oct-09 23:31N 39°54' W 075°08'3 6.1
2017-Oct-09 23:00N 39°53' W 075°12'1 1.9
2017-Oct-09 22:30N 39°54' W 075°12'2 3.9
2017-Oct-09 22:00N 39°53' W 075°10'1 2.6
2017-Oct-09 21:31N 39°54' W 075°09'0 0.0
2017-Oct-09 21:01N 39°54' W 075°09'0 0.0
2017-Oct-09 20:30N 39°54' W 075°09'0 0.0
2017-Oct-09 20:00N 39°54' W 075°09'0 0.0
2017-Oct-09 19:31N 39°54' W 075°09'0 0.0
2017-Oct-09 19:01N 39°54' W 075°09'0 0.0
2017-Oct-09 18:31N 39°54' W 075°09'0 0.0
2017-Oct-09 18:00N 39°54' W 075°09'0 0.0
2017-Oct-09 17:31N 39°54' W 075°09'0 0.0
2017-Oct-09 17:01N 39°54' W 075°09'0 0.0
2017-Oct-09 16:31N 39°54' W 075°09'0 0.0
2017-Oct-09 16:00N 39°54' W 075°09'0 0.0
2017-Oct-09 15:30N 39°54' W 075°09'0 0.0
2017-Oct-09 15:00N 39°54' W 075°09'0 0.0
2017-Oct-09 14:30N 39°54' W 075°09'0 0.0
2017-Oct-09 14:00N 39°54' W 075°09'0 0.0
2017-Oct-09 13:30N 39°54' W 075°09'0 0.0
2017-Oct-09 13:00N 39°54' W 075°09'1 2.5
2017-Oct-09 12:30N 39°53' W 075°10'2 3.2
2017-Oct-09 12:00N 39°53' W 075°12'0 0.0
2017-Oct-09 11:31N 39°53' W 075°12'2 3.6
2017-Oct-09 11:01N 39°52' W 075°13'3 6.7
2017-Oct-09 10:30N 39°51' W 075°17'3 6.8
2017-Oct-09 10:00N 39°50' W 075°22'2 4.9
2017-Oct-09 09:30N 39°49' W 075°24'0 0.3
2017-Oct-09 09:00N 39°49' W 075°24'0 0.1
2017-Oct-09 08:30N 39°49' W 075°24'1 2.8
2017-Oct-09 08:00N 39°50' W 075°22'3 6.6
2017-Oct-09 07:30N 39°51' W 075°19'3 6.9
2017-Oct-09 07:00N 39°51' W 075°14'3 5.6
2017-Oct-09 06:30N 39°53' W 075°12'0 0.0
2017-Oct-09 06:00N 39°53' W 075°12'0 0.0
2017-Oct-09 05:30N 39°53' W 075°12'0 0.0
2017-Oct-09 05:00N 39°53' W 075°12'0 0.0
2017-Oct-09 04:30N 39°53' W 075°12'0 1.0
2017-Oct-09 04:00N 39°54' W 075°12'1 1.1
2017-Oct-09 03:30N 39°53' W 075°12'3 6.1
2017-Oct-09 03:00N 39°51' W 075°15'3 6.7
2017-Oct-09 02:30N 39°51' W 075°19'3 6.2
2017-Oct-09 02:00N 39°50' W 075°23'3 6.5
2017-Oct-09 01:30N 39°48' W 075°26'3 6.0
2017-Oct-09 01:01N 39°46' W 075°29'3 5.9
2017-Oct-09 00:31N 39°43' W 075°31'1 1.1
2017-Oct-09 00:01N 39°43' W 075°31'0 0.0
2017-Oct-08 23:30N 39°43' W 075°31'0 0.0
2017-Oct-08 23:01N 39°43' W 075°31'0 0.0
2017-Oct-08 22:30N 39°43' W 075°31'0 0.0
2017-Oct-08 22:01N 39°43' W 075°31'0 0.0
2017-Oct-08 21:30N 39°43' W 075°31'0 0.0
2017-Oct-08 21:00N 39°43' W 075°31'0 0.0
2017-Oct-08 20:30N 39°43' W 075°31'0 0.0
2017-Oct-08 20:01N 39°43' W 075°31'0 0.0
2017-Oct-08 19:31N 39°43' W 075°31'0 0.0
2017-Oct-08 19:00N 39°43' W 075°31'1 1.7
2017-Oct-08 18:31N 39°43' W 075°30'3 6.0
2017-Oct-08 18:01N 39°46' W 075°29'3 5.9
2017-Oct-08 17:31N 39°48' W 075°26'3 6.1
2017-Oct-08 17:00N 39°50' W 075°22'3 5.4
2017-Oct-08 16:30N 39°51' W 075°19'3 6.2
2017-Oct-08 16:01N 39°51' W 075°15'4 7.1
2017-Oct-08 15:30N 39°53' W 075°11'2 4.9
2017-Oct-08 15:00N 39°54' W 075°08'1 1.1
2017-Oct-08 14:30N 39°54' W 075°08'0 0.2
2017-Oct-08 14:01N 39°54' W 075°08'0 0.6
2017-Oct-08 13:30N 39°54' W 075°08'1 2.5
2017-Oct-08 13:00N 39°53' W 075°09'2 4.1
2017-Oct-08 12:30N 39°53' W 075°12'2 3.5
2017-Oct-08 12:00N 39°55' W 075°13'0 0.1
2017-Oct-08 11:30N 39°55' W 075°13'0 0.0
2017-Oct-08 11:00N 39°55' W 075°13'0 0.0
2017-Oct-08 10:30N 39°55' W 075°13'0 0.0
2017-Oct-08 10:00N 39°55' W 075°13'2 3.4
2017-Oct-08 09:30N 39°53' W 075°12'3 5.2
2017-Oct-08 09:00N 39°54' W 075°08'0 0.1
2017-Oct-08 08:31N 39°54' W 075°08'0 0.4
2017-Oct-08 08:00N 39°54' W 075°09'0 0.0
2017-Oct-08 07:30N 39°54' W 075°09'2 4.9
2017-Oct-08 07:00N 39°53' W 075°12'2 4.0
2017-Oct-08 06:30N 39°55' W 075°13'0 0.3
2017-Oct-08 06:00N 39°54' W 075°13'1 2.9
2017-Oct-08 05:31N 39°53' W 075°12'2 3.1
2017-Oct-08 05:00N 39°52' W 075°13'1 1.1
2017-Oct-08 04:31N 39°52' W 075°12'1 1.9
2017-Oct-08 04:00N 39°53' W 075°11'1 2.1
2017-Oct-08 03:30N 39°53' W 075°10'1 2.7
2017-Oct-08 03:00N 39°54' W 075°08'0 0.0
2017-Oct-08 02:30N 39°54' W 075°08'0 0.3
2017-Oct-08 02:00N 39°54' W 075°09'0 0.0
2017-Oct-08 01:30N 39°54' W 075°09'0 0.0
2017-Oct-08 01:00N 39°54' W 075°09'0 0.0
2017-Oct-08 00:30N 39°54' W 075°09'0 0.0
2017-Oct-08 00:00N 39°54' W 075°09'0 0.0
2017-Oct-07 23:30N 39°54' W 075°09'0 0.0
2017-Oct-07 23:00N 39°54' W 075°09'0 0.0
2017-Oct-07 22:30N 39°54' W 075°09'0 0.0
2017-Oct-07 22:00N 39°54' W 075°09'0 0.0
2017-Oct-07 21:30N 39°54' W 075°09'0 0.0
2017-Oct-07 21:01N 39°54' W 075°09'0 0.3
2017-Oct-07 20:30N 39°54' W 075°08'3 5.1
2017-Oct-07 20:01N 39°53' W 075°12'0 0.0
2017-Oct-07 19:31N 39°53' W 075°12'2 3.3
2017-Oct-07 19:00N 39°52' W 075°13'0 0.6
2017-Oct-07 18:31N 39°52' W 075°13'0 0.0
2017-Oct-07 18:00N 39°52' W 075°13'0 0.0
2017-Oct-07 17:30N 39°52' W 075°13'0 0.0
2017-Oct-07 17:00N 39°52' W 075°13'0 0.0
2017-Oct-07 16:30N 39°52' W 075°13'0 0.0
2017-Oct-07 16:00N 39°52' W 075°13'1 2.1
2017-Oct-07 15:30N 39°53' W 075°12'  
Track history (hours):
 
Tides and Currents Weather Stations Pressure Air Temp Water Temp Dewpoint Dewpoint Depression Visibility Wind Speed Wind Dir Waves Ship Positions

Chief

Owner: T & C TOWING INC, ELIZABETH CITY, NC. More information available from US FCC via Universal Licensing System and Coast Guard Vessel Documentation Center.

Last reported at 2017-Oct-17 15:25 UTC. Time now 2017-Oct-18 15:15 UTC.
Position N 38°49' W 076°27'.

Length 30 m; draft 0.3 m.

Type: Tug. MMSI: 280001.

Date/timePositionNaut miles runAvg speedWind from/ knotsBaromVisibWave heightAir tempDewpointWater temp
2017-Oct-17 15:25N 38°49' W 076°27'3 7.5
2017-Oct-17 14:59N 38°52' W 076°26'4 7.8
2017-Oct-17 14:30N 38°55' W 076°25'4 7.4
2017-Oct-17 14:00N 38°59' W 076°23'10 6.5
2017-Oct-17 12:26N 39°09' W 076°25'3 6.1
2017-Oct-17 12:00N 39°11' W 076°27'4 6.5
2017-Oct-17 11:27N 39°12' W 076°31'2 3.8
2017-Oct-17 11:00N 39°14' W 076°33'1 2.4
2017-Oct-17 10:30N 39°13' W 076°34'1 1.2
2017-Oct-17 10:00N 39°13' W 076°35'0 0.0
2017-Oct-17 07:21N 39°13' W 076°35'0 0.0
2017-Oct-17 06:56N 39°13' W 076°35'0 0.0
2017-Oct-17 05:27N 39°13' W 076°35'0 0.0
2017-Oct-17 04:51N 39°13' W 076°35'0 0.0
2017-Oct-17 04:28N 39°13' W 076°35'0 0.0
2017-Oct-17 04:00N 39°13' W 076°35'0 0.0
2017-Oct-17 03:30N 39°13' W 076°35'0 0.0
2017-Oct-17 03:00N 39°13' W 076°35'0 0.0
2017-Oct-17 02:30N 39°13' W 076°35'0 0.0
2017-Oct-17 02:00N 39°13' W 076°35'0 0.0
2017-Oct-17 01:30N 39°13' W 076°35'0 0.0
2017-Oct-17 01:00N 39°13' W 076°35'0 0.0
2017-Oct-17 00:30N 39°13' W 076°35'0 0.0
2017-Oct-16 23:37N 39°13' W 076°35'0 0.0
2017-Oct-16 22:03N 39°13' W 076°35'0 0.1
2017-Oct-16 21:53N 39°13' W 076°35'0 0.1
2017-Oct-16 21:29N 39°13' W 076°35'0 0.0
2017-Oct-16 20:56N 39°13' W 076°35'0 0.0
2017-Oct-16 20:16N 39°13' W 076°35'0 0.0
2017-Oct-16 19:51N 39°13' W 076°35'0 0.0
2017-Oct-16 19:24N 39°13' W 076°35'0 0.0
2017-Oct-16 19:00N 39°13' W 076°35'0 0.0
2017-Oct-16 18:29N 39°13' W 076°35'0 0.0
2017-Oct-16 17:51N 39°13' W 076°35'0 0.0
2017-Oct-16 16:51N 39°13' W 076°35'0 0.0
2017-Oct-16 16:16N 39°13' W 076°35'0 0.0
2017-Oct-16 15:48N 39°13' W 076°35'0 0.0
2017-Oct-16 15:29N 39°13' W 076°35'0 0.0
2017-Oct-16 14:26N 39°13' W 076°35'0 0.0
2017-Oct-16 13:03N 39°13' W 076°35'0 0.0
2017-Oct-16 13:00N 39°13' W 076°35'0 0.0
2017-Oct-16 12:30N 39°13' W 076°35'0 0.0
2017-Oct-16 11:55N 39°13' W 076°35'0 0.0
2017-Oct-16 11:28N 39°13' W 076°35'0 0.0
2017-Oct-16 10:58N 39°13' W 076°35'0 0.0
2017-Oct-16 06:55N 39°13' W 076°35'0 0.0
2017-Oct-16 05:40N 39°13' W 076°35'0 0.0
2017-Oct-16 05:26N 39°13' W 076°35'0 0.0
2017-Oct-16 04:41N 39°13' W 076°35'1 4.1
2017-Oct-16 04:23N 39°13' W 076°33'5 2.4
2017-Oct-16 02:25N 39°12' W 076°28'1 3.2
2017-Oct-16 01:59N 39°11' W 076°27'1 0.3
2017-Oct-15 23:32N 39°11' W 076°27'0 6.0
2017-Oct-15 23:28N 39°11' W 076°28'4 7.6
2017-Oct-15 22:57N 39°13' W 076°32'2 2.7
2017-Oct-15 22:14N 39°13' W 076°35'1 2.9
2017-Oct-15 21:56N 39°13' W 076°34'1 1.0
2017-Oct-15 20:53N 39°13' W 076°35'2 5.2
2017-Oct-15 20:31N 39°14' W 076°33'1 2.4
2017-Oct-15 20:00N 39°15' W 076°34'0 0.0
2017-Oct-15 19:30N 39°15' W 076°34'0 0.0
2017-Oct-15 19:00N 39°15' W 076°34'0 0.1
2017-Oct-15 18:30N 39°15' W 076°34'0 0.0
2017-Oct-15 17:59N 39°15' W 076°34'0 0.0
2017-Oct-15 17:30N 39°15' W 076°34'0 0.0
2017-Oct-15 16:57N 39°15' W 076°34'0 0.0
2017-Oct-15 16:30N 39°15' W 076°34'0 0.0
2017-Oct-15 16:00N 39°15' W 076°34'0 0.0
2017-Oct-15 15:30N 39°15' W 076°34'2 3.1
2017-Oct-15 14:59N 39°14' W 076°32'9 8.8
2017-Oct-15 14:00N 39°08' W 076°24'4 9.1
2017-Oct-15 13:30N 39°04' W 076°23'4 8.6
2017-Oct-15 13:01N 38°59' W 076°23'5 9.1
2017-Oct-15 12:30N 38°55' W 076°25'4 8.9
2017-Oct-15 12:00N 38°51' W 076°26'77 8.1
2017-Oct-15 02:31N 37°35' W 076°11'010.4
2017-Oct-15 02:30N 37°35' W 076°11'13 3.0
2017-Oct-14 22:01N 37°48' W 076°12'1 7.0
2017-Oct-14 21:52N 37°49' W 076°11'7 6.6
2017-Oct-14 20:51N 37°56' W 076°12'3 7.0
2017-Oct-14 20:22N 37°59' W 076°13'3 7.0
2017-Oct-14 19:58N 38°02' W 076°14'4 7.1
2017-Oct-14 19:27N 38°05' W 076°15'4 7.0
2017-Oct-14 18:56N 38°09' W 076°17'3 7.0
2017-Oct-14 18:27N 38°12' W 076°17'6 6.9
2017-Oct-14 17:33N 38°18' W 076°20'5 6.9
2017-Oct-14 16:45N 38°23' W 076°21'2 6.7
2017-Oct-14 16:28N 38°25' W 076°23'3 6.5
2017-Oct-14 16:01N 38°27' W 076°25'3 6.4
2017-Oct-14 15:30N 38°30' W 076°27'3 6.3
2017-Oct-14 15:00N 38°33' W 076°28'4 6.4
2017-Oct-14 14:22N 38°37' W 076°29'8 6.6
2017-Oct-14 13:08N 38°45' W 076°29'3 6.8
2017-Oct-14 12:42N 38°48' W 076°28'1 7.0
2017-Oct-14 12:30N 38°49' W 076°27'8 7.2
2017-Oct-14 11:27N 38°57' W 076°24'3 6.4
2017-Oct-14 11:00N 38°59' W 076°23'3 6.4
2017-Oct-14 10:30N 39°03' W 076°23'4 6.1
2017-Oct-14 09:55N 39°06' W 076°24'3 5.7
2017-Oct-14 09:27N 39°09' W 076°25'3 5.6
2017-Oct-14 08:58N 39°11' W 076°27'3 5.8
2017-Oct-14 08:26N 39°12' W 076°30'3 4.7
2017-Oct-14 07:54N 39°14' W 076°33'0 0.5
2017-Oct-14 07:29N 39°14' W 076°33'1 2.7
2017-Oct-14 07:00N 39°13' W 076°35'0 0.4
2017-Oct-14 06:23N 39°13' W 076°35'0 0.1
2017-Oct-14 05:54N 39°13' W 076°35'1 2.7
2017-Oct-14 05:30N 39°13' W 076°34'1 1.9
2017-Oct-14 05:00N 39°13' W 076°35'0 0.3
2017-Oct-14 04:31N 39°13' W 076°35'0 0.0
2017-Oct-14 04:00N 39°13' W 076°35'0 0.0
2017-Oct-14 03:31N 39°13' W 076°35'0 0.1
2017-Oct-14 03:00N 39°13' W 076°35'0 0.0
2017-Oct-14 02:30N 39°13' W 076°35'2 3.5
2017-Oct-14 01:53N 39°13' W 076°32'13 8.4
2017-Oct-14 00:17N 39°13' W 076°15'311.2
2017-Oct-14 00:00N 39°16' W 076°14'711.1
2017-Oct-13 23:23N 39°22' W 076°09'411.2
2017-Oct-13 23:00N 39°24' W 076°04'510.7
2017-Oct-13 22:30N 39°28' W 075°59'5 9.8
2017-Oct-13 22:00N 39°31' W 075°54'4 7.5
2017-Oct-13 21:30N 39°32' W 075°49'4 8.2
2017-Oct-13 21:00N 39°32' W 075°44'4 8.8
2017-Oct-13 20:31N 39°33' W 075°38'4 7.6
2017-Oct-13 20:00N 39°34' W 075°34'1 2.6
2017-Oct-13 19:30N 39°35' W 075°35'0 0.8
2017-Oct-13 19:00N 39°35' W 075°35'1 1.2
2017-Oct-13 18:30N 39°34' W 075°34'1 1.3
2017-Oct-13 18:00N 39°34' W 075°34'2 4.2
2017-Oct-13 17:30N 39°33' W 075°37'2 4.1
2017-Oct-13 17:00N 39°33' W 075°39'2 4.2
2017-Oct-13 16:30N 39°33' W 075°42'2 3.8
2017-Oct-13 16:00N 39°32' W 075°44'2 3.3
2017-Oct-13 15:31N 39°32' W 075°46'1 2.7
2017-Oct-13 15:00N 39°32' W 075°48'1 2.4
2017-Oct-13 14:30N 39°32' W 075°50'1 2.6
2017-Oct-13 14:00N 39°32' W 075°51'1 2.4
2017-Oct-13 13:30N 39°31' W 075°53'1 2.1
2017-Oct-13 13:00N 39°31' W 075°54'1 2.0
2017-Oct-13 12:31N 39°30' W 075°55'1 2.2
2017-Oct-13 12:00N 39°30' W 075°56'1 1.8
2017-Oct-13 11:30N 39°29' W 075°57'1 1.8
2017-Oct-13 11:01N 39°28' W 075°58'1 1.9
2017-Oct-13 10:31N 39°28' W 075°59'1 2.1
2017-Oct-13 10:01N 39°27' W 075°60'1 2.3
2017-Oct-13 09:31N 39°26' W 076°01'1 2.3
2017-Oct-13 09:00N 39°25' W 076°02'3 5.7
2017-Oct-13 08:30N 39°27' W 075°59'4 7.0
2017-Oct-13 08:00N 39°30' W 075°56'3 6.5
2017-Oct-13 07:30N 39°32' W 075°52'2 4.3
2017-Oct-13 07:00N 39°32' W 075°50'2 4.4
2017-Oct-13 06:30N 39°32' W 075°47'3 6.3
2017-Oct-13 06:00N 39°33' W 075°43'3 6.5
2017-Oct-13 05:31N 39°33' W 075°39'3 6.4
2017-Oct-13 05:00N 39°34' W 075°34'3 5.1
2017-Oct-13 04:30N 39°36' W 075°34'3 6.9
2017-Oct-13 04:00N 39°39' W 075°33'4 7.8
2017-Oct-13 03:30N 39°43' W 075°31'4 7.9
2017-Oct-13 03:00N 39°46' W 075°28'4 7.9
2017-Oct-13 02:30N 39°49' W 075°24'4 7.3
2017-Oct-13 02:00N 39°51' W 075°20'4 7.5
2017-Oct-13 01:30N 39°51' W 075°15'4 7.2
2017-Oct-13 01:00N 39°53' W 075°11'2 4.5
2017-Oct-13 00:30N 39°54' W 075°09'0 0.1
2017-Oct-13 00:00N 39°54' W 075°09'0 0.0
2017-Oct-12 23:30N 39°54' W 075°09'0 0.0
2017-Oct-12 23:00N 39°54' W 075°09'0 0.0
2017-Oct-12 22:30N 39°54' W 075°09'0 0.0
2017-Oct-12 22:00N 39°54' W 075°09'0 0.0
2017-Oct-12 21:30N 39°54' W 075°09'2 3.9
2017-Oct-12 21:00N 39°56' W 075°08'3 6.5
2017-Oct-12 20:30N 39°58' W 075°06'1 2.5
2017-Oct-12 20:00N 39°59' W 075°04'0 0.0
2017-Oct-12 19:30N 39°59' W 075°04'2 4.9
2017-Oct-12 19:00N 39°58' W 075°07'4 7.1
2017-Oct-12 18:31N 39°54' W 075°08'1 1.7
2017-Oct-12 18:01N 39°54' W 075°09'0 0.0
2017-Oct-12 17:31N 39°54' W 075°09'0 0.0
2017-Oct-12 17:00N 39°54' W 075°09'0 0.0
2017-Oct-12 16:30N 39°54' W 075°09'0 0.0
2017-Oct-12 16:00N 39°54' W 075°09'0 0.0
2017-Oct-12 15:30N 39°54' W 075°09'0 0.0
2017-Oct-12 15:01N 39°54' W 075°09'0 0.0
2017-Oct-12 14:30N 39°54' W 075°09'0 0.0
2017-Oct-12 14:00N 39°54' W 075°09'0 0.0
2017-Oct-12 13:30N 39°54' W 075°09'0 0.0
2017-Oct-12 13:00N 39°54' W 075°09'0 0.0
2017-Oct-12 12:30N 39°54' W 075°09'0 0.0
2017-Oct-12 12:00N 39°54' W 075°09'0 0.0
2017-Oct-12 11:31N 39°54' W 075°09'0 0.0
2017-Oct-12 11:00N 39°54' W 075°09'0 0.0
2017-Oct-12 10:30N 39°54' W 075°09'0 0.0
2017-Oct-12 10:00N 39°54' W 075°09'0 0.0
2017-Oct-12 09:30N 39°54' W 075°09'0 0.0
2017-Oct-12 09:00N 39°54' W 075°09'0 0.0
2017-Oct-12 08:30N 39°54' W 075°09'0 0.0
2017-Oct-12 08:00N 39°54' W 075°09'0 0.0
2017-Oct-12 07:30N 39°54' W 075°09'0 0.0
2017-Oct-12 07:00N 39°54' W 075°09'0 0.0
2017-Oct-12 06:30N 39°54' W 075°09'0 0.0
2017-Oct-12 06:00N 39°54' W 075°09'0 0.0
2017-Oct-12 05:30N 39°54' W 075°09'0 0.0
2017-Oct-12 05:00N 39°54' W 075°09'0 0.0
2017-Oct-12 04:31N 39°54' W 075°09'0 0.0
2017-Oct-12 04:00N 39°54' W 075°09'0 0.0
2017-Oct-12 03:30N 39°54' W 075°09'0 0.0
2017-Oct-12 03:01N 39°54' W 075°09'0 0.0
2017-Oct-12 02:30N 39°54' W 075°09'0 0.0
2017-Oct-12 02:00N 39°54' W 075°09'0 0.0
2017-Oct-12 01:31N 39°54' W 075°09'0 0.0
2017-Oct-12 01:00N 39°54' W 075°09'0 0.0
2017-Oct-12 00:30N 39°54' W 075°09'0 0.0
2017-Oct-11 22:28N 39°54' W 075°09'0 0.2
2017-Oct-11 22:01N 39°54' W 075°08'1 1.3
2017-Oct-11 21:30N 39°54' W 075°08'3 6.3
2017-Oct-11 21:00N 39°57' W 075°08'3 5.1
2017-Oct-11 20:30N 39°59' W 075°05'0 0.1
2017-Oct-11 20:00N 39°59' W 075°05'4 7.4
2017-Oct-11 19:30N 39°56' W 075°08'2 4.4
2017-Oct-11 19:00N 39°54' W 075°09'0 0.0
2017-Oct-11 18:30N 39°54' W 075°09'0 0.0
2017-Oct-11 18:01N 39°54' W 075°09'0 0.0
2017-Oct-11 17:31N 39°54' W 075°09'0 0.0
2017-Oct-11 17:01N 39°54' W 075°09'6 0.3
2017-Oct-11 00:01N 39°59' W 075°04'3 5.0
2017-Oct-10 23:30N 39°58' W 075°08'3 5.5
2017-Oct-10 23:00N 39°55' W 075°08'1 2.8
2017-Oct-10 22:30N 39°54' W 075°08'0 0.4
2017-Oct-10 22:01N 39°54' W 075°09'0 0.0
2017-Oct-10 21:30N 39°54' W 075°09'0 0.0
2017-Oct-10 21:00N 39°54' W 075°09'0 0.0
2017-Oct-10 20:30N 39°54' W 075°09'0 0.0
2017-Oct-10 20:00N 39°54' W 075°09'0 0.0
2017-Oct-10 19:31N 39°54' W 075°09'0 0.9
2017-Oct-10 19:00N 39°54' W 075°08'0 0.1
2017-Oct-10 18:31N 39°54' W 075°08'2 4.4
2017-Oct-10 18:00N 39°56' W 075°08'3 5.8
2017-Oct-10 17:30N 39°58' W 075°06'1 2.9
2017-Oct-10 17:00N 39°59' W 075°04'0 0.2
2017-Oct-10 16:30N 39°59' W 075°04'1 2.6
2017-Oct-10 16:00N 39°58' W 075°06'3 5.7
2017-Oct-10 15:30N 39°56' W 075°08'3 5.2
2017-Oct-10 15:01N 39°54' W 075°08'0 0.1
2017-Oct-10 14:00N 39°54' W 075°09'0 0.0
2017-Oct-10 13:30N 39°54' W 075°09'0 0.0
2017-Oct-10 13:00N 39°54' W 075°09'0 0.1
2017-Oct-10 12:30N 39°54' W 075°09'0 0.1
2017-Oct-10 12:01N 39°54' W 075°09'3 6.3
2017-Oct-10 11:30N 39°57' W 075°08'4 7.3
2017-Oct-10 11:01N 39°59' W 075°04'1 1.9
2017-Oct-10 10:30N 39°59' W 075°05'4 7.4
2017-Oct-10 10:00N 39°56' W 075°08'2 3.6
2017-Oct-10 09:31N 39°54' W 075°09'0 0.0
2017-Oct-10 09:00N 39°54' W 075°09'0 0.0
2017-Oct-10 08:30N 39°54' W 075°09'0 0.0
2017-Oct-10 08:01N 39°54' W 075°09'0 0.0
2017-Oct-10 07:30N 39°54' W 075°09'0 0.0
2017-Oct-10 07:00N 39°54' W 075°09'0 0.0
2017-Oct-10 06:30N 39°54' W 075°09'0 0.0
2017-Oct-10 06:00N 39°54' W 075°09'0 0.0
2017-Oct-10 05:30N 39°54' W 075°09'0 0.0
2017-Oct-10 05:01N 39°54' W 075°09'0 0.0
2017-Oct-10 04:31N 39°54' W 075°09'0 0.0
2017-Oct-10 04:01N 39°54' W 075°09'0 0.4
2017-Oct-10 03:30N 39°54' W 075°08'0 0.3
2017-Oct-10 03:00N 39°54' W 075°08'2 3.0
2017-Oct-10 02:30N 39°55' W 075°08'4 8.2
2017-Oct-10 02:00N 39°59' W 075°05'1 1.0
2017-Oct-10 01:30N 39°59' W 075°04'0 0.1
2017-Oct-10 01:00N 39°59' W 075°04'2 3.6
2017-Oct-10 00:30N 39°58' W 075°06'1 2.9
2017-Oct-10 00:00N 39°57' W 075°08'3 6.5
2017-Oct-09 23:31N 39°54' W 075°08'3 6.1
2017-Oct-09 23:00N 39°53' W 075°12'1 1.9
2017-Oct-09 22:30N 39°54' W 075°12'2 3.9
2017-Oct-09 22:00N 39°53' W 075°10'1 2.6
2017-Oct-09 21:31N 39°54' W 075°09'0 0.0
2017-Oct-09 21:01N 39°54' W 075°09'0 0.0
2017-Oct-09 20:30N 39°54' W 075°09'0 0.0
2017-Oct-09 20:00N 39°54' W 075°09'0 0.0
2017-Oct-09 19:31N 39°54' W 075°09'0 0.0
2017-Oct-09 19:01N 39°54' W 075°09'0 0.0
2017-Oct-09 18:31N 39°54' W 075°09'0 0.0
2017-Oct-09 18:00N 39°54' W 075°09'0 0.0
2017-Oct-09 17:31N 39°54' W 075°09'0 0.0
2017-Oct-09 17:01N 39°54' W 075°09'0 0.0
2017-Oct-09 16:31N 39°54' W 075°09'0 0.0
2017-Oct-09 16:00N 39°54' W 075°09'0 0.0
2017-Oct-09 15:30N 39°54' W 075°09'0 0.0
2017-Oct-09 15:00N 39°54' W 075°09'0 0.0
2017-Oct-09 14:30N 39°54' W 075°09'0 0.0
2017-Oct-09 14:00N 39°54' W 075°09'0 0.0
2017-Oct-09 13:30N 39°54' W 075°09'0 0.0
2017-Oct-09 13:00N 39°54' W 075°09'1 2.5
2017-Oct-09 12:30N 39°53' W 075°10'2 3.2
2017-Oct-09 12:00N 39°53' W 075°12'0 0.0
2017-Oct-09 11:31N 39°53' W 075°12'2 3.6
2017-Oct-09 11:01N 39°52' W 075°13'3 6.7
2017-Oct-09 10:30N 39°51' W 075°17'3 6.8
2017-Oct-09 10:00N 39°50' W 075°22'2 4.9
2017-Oct-09 09:30N 39°49' W 075°24'0 0.3
2017-Oct-09 09:00N 39°49' W 075°24'0 0.1
2017-Oct-09 08:30N 39°49' W 075°24'1 2.8
2017-Oct-09 08:00N 39°50' W 075°22'3 6.6
2017-Oct-09 07:30N 39°51' W 075°19'3 6.9
2017-Oct-09 07:00N 39°51' W 075°14'3 5.6
2017-Oct-09 06:30N 39°53' W 075°12'0 0.0
2017-Oct-09 06:00N 39°53' W 075°12'0 0.0
2017-Oct-09 05:30N 39°53' W 075°12'0 0.0
2017-Oct-09 05:00N 39°53' W 075°12'0 0.0
2017-Oct-09 04:30N 39°53' W 075°12'0 1.0
2017-Oct-09 04:00N 39°54' W 075°12'1 1.1
2017-Oct-09 03:30N 39°53' W 075°12'3 6.1
2017-Oct-09 03:00N 39°51' W 075°15'3 6.7
2017-Oct-09 02:30N 39°51' W 075°19'3 6.2
2017-Oct-09 02:00N 39°50' W 075°23'3 6.5
2017-Oct-09 01:30N 39°48' W 075°26'3 6.0
2017-Oct-09 01:01N 39°46' W 075°29'3 5.9
2017-Oct-09 00:31N 39°43' W 075°31'1 1.1
2017-Oct-09 00:01N 39°43' W 075°31'0 0.0
2017-Oct-08 23:30N 39°43' W 075°31'0 0.0
2017-Oct-08 23:01N 39°43' W 075°31'0 0.0
2017-Oct-08 22:30N 39°43' W 075°31'0 0.0
2017-Oct-08 22:01N 39°43' W 075°31'0 0.0
2017-Oct-08 21:30N 39°43' W 075°31'0 0.0
2017-Oct-08 21:00N 39°43' W 075°31'0 0.0
2017-Oct-08 20:30N 39°43' W 075°31'0 0.0
2017-Oct-08 20:01N 39°43' W 075°31'0 0.0
2017-Oct-08 19:31N 39°43' W 075°31'0 0.0
2017-Oct-08 19:00N 39°43' W 075°31'1 1.7
2017-Oct-08 18:31N 39°43' W 075°30'3 6.0
2017-Oct-08 18:01N 39°46' W 075°29'3 5.9
2017-Oct-08 17:31N 39°48' W 075°26'3 6.1
2017-Oct-08 17:00N 39°50' W 075°22'3 5.4
2017-Oct-08 16:30N 39°51' W 075°19'3 6.2
2017-Oct-08 16:01N 39°51' W 075°15'4 7.1
2017-Oct-08 15:30N 39°53' W 075°11'2 4.9
2017-Oct-08 15:00N 39°54' W 075°08'1 1.1
2017-Oct-08 14:30N 39°54' W 075°08'0 0.2
2017-Oct-08 14:01N 39°54' W 075°08'0 0.6
2017-Oct-08 13:30N 39°54' W 075°08'1 2.5
2017-Oct-08 13:00N 39°53' W 075°09'2 4.1
2017-Oct-08 12:30N 39°53' W 075°12'2 3.5
2017-Oct-08 12:00N 39°55' W 075°13'0 0.1
2017-Oct-08 11:30N 39°55' W 075°13'0 0.0
2017-Oct-08 11:00N 39°55' W 075°13'0 0.0
2017-Oct-08 10:30N 39°55' W 075°13'0 0.0
2017-Oct-08 10:00N 39°55' W 075°13'2 3.4
2017-Oct-08 09:30N 39°53' W 075°12'3 5.2
2017-Oct-08 09:00N 39°54' W 075°08'0 0.1
2017-Oct-08 08:31N 39°54' W 075°08'0 0.4
2017-Oct-08 08:00N 39°54' W 075°09'0 0.0
2017-Oct-08 07:30N 39°54' W 075°09'2 4.9
2017-Oct-08 07:00N 39°53' W 075°12'2 4.0
2017-Oct-08 06:30N 39°55' W 075°13'0 0.3
2017-Oct-08 06:00N 39°54' W 075°13'1 2.9
2017-Oct-08 05:31N 39°53' W 075°12'2 3.1
2017-Oct-08 05:00N 39°52' W 075°13'1 1.1
2017-Oct-08 04:31N 39°52' W 075°12'1 1.9
2017-Oct-08 04:00N 39°53' W 075°11'1 2.1
2017-Oct-08 03:30N 39°53' W 075°10'1 2.7
2017-Oct-08 03:00N 39°54' W 075°08'0 0.0
2017-Oct-08 02:30N 39°54' W 075°08'0 0.3
2017-Oct-08 02:00N 39°54' W 075°09'0 0.0
2017-Oct-08 01:30N 39°54' W 075°09'0 0.0
2017-Oct-08 01:00N 39°54' W 075°09'0 0.0
2017-Oct-08 00:30N 39°54' W 075°09'0 0.0
2017-Oct-08 00:00N 39°54' W 075°09'0 0.0
2017-Oct-07 23:30N 39°54' W 075°09'0 0.0
2017-Oct-07 23:00N 39°54' W 075°09'0 0.0
2017-Oct-07 22:30N 39°54' W 075°09'0 0.0
2017-Oct-07 22:00N 39°54' W 075°09'0 0.0
2017-Oct-07 21:30N 39°54' W 075°09'0 0.0
2017-Oct-07 21:01N 39°54' W 075°09'0 0.3
2017-Oct-07 20:30N 39°54' W 075°08'3 5.1
2017-Oct-07 20:01N 39°53' W 075°12'0 0.0
2017-Oct-07 19:31N 39°53' W 075°12'2 3.3
2017-Oct-07 19:00N 39°52' W 075°13'0 0.6
2017-Oct-07 18:31N 39°52' W 075°13'0 0.0
2017-Oct-07 18:00N 39°52' W 075°13'0 0.0
2017-Oct-07 17:30N 39°52' W 075°13'0 0.0
2017-Oct-07 17:00N 39°52' W 075°13'0 0.0
2017-Oct-07 16:30N 39°52' W 075°13'0 0.0
2017-Oct-07 16:00N 39°52' W 075°13'1 2.1
2017-Oct-07 15:30N 39°53' W 075°12'  

Dump ship's entire track history